sensor_id;sensor_type;location;lat;lon;timestamp;pressure;altitude;pressure_sealevel;temperature;humidity
59110;BME280;44895;47.438;18.978;2023-11-21T00:02:59;99619.31;;;4.54;100.00
59110;BME280;44895;47.438;18.978;2023-11-21T00:06:02;99616.88;;;4.52;100.00
59110;BME280;44895;47.438;18.978;2023-11-21T00:09:06;99614.22;;;4.68;100.00
59110;BME280;44895;47.438;18.978;2023-11-21T00:12:12;99604.81;;;4.70;100.00
59110;BME280;44895;47.438;18.978;2023-11-21T00:15:17;99610.16;;;4.50;100.00
59110;BME280;44895;47.438;18.978;2023-11-21T00:18:21;99606.53;;;4.18;100.00
59110;BME280;44895;47.438;18.978;2023-11-21T00:21:25;99612.22;;;4.27;100.00
59110;BME280;44895;47.438;18.978;2023-11-21T00:24:29;99640.31;;;4.04;100.00
59110;BME280;44895;47.438;18.978;2023-11-21T00:27:32;99644.44;;;4.17;100.00
59110;BME280;44895;47.438;18.978;2023-11-21T00:30:36;99637.53;;;4.36;100.00
59110;BME280;44895;47.438;18.978;2023-11-21T00:33:40;99646.00;;;4.07;100.00
59110;BME280;44895;47.438;18.978;2023-11-21T00:36:44;99643.25;;;3.97;100.00
59110;BME280;44895;47.438;18.978;2023-11-21T00:39:47;99639.00;;;4.06;100.00
59110;BME280;44895;47.438;18.978;2023-11-21T00:42:51;99650.88;;;4.16;100.00
59110;BME280;44895;47.438;18.978;2023-11-21T00:45:55;99650.19;;;4.41;100.00
59110;BME280;44895;47.438;18.978;2023-11-21T00:48:59;99664.19;;;4.48;100.00
59110;BME280;44895;47.438;18.978;2023-11-21T00:52:03;99657.44;;;4.46;100.00
59110;BME280;44895;47.438;18.978;2023-11-21T00:55:07;99649.41;;;4.51;100.00
59110;BME280;44895;47.438;18.978;2023-11-21T00:58:11;99648.88;;;4.54;100.00
59110;BME280;44895;47.438;18.978;2023-11-21T01:01:16;99644.56;;;4.48;100.00
59110;BME280;44895;47.438;18.978;2023-11-21T01:04:19;99637.56;;;4.52;100.00
59110;BME280;44895;47.438;18.978;2023-11-21T01:07:23;99636.22;;;4.44;100.00
59110;BME280;44895;47.438;18.978;2023-11-21T01:10:26;99632.59;;;4.18;100.00
59110;BME280;44895;47.438;18.978;2023-11-21T01:13:31;99639.28;;;4.10;100.00
59110;BME280;44895;47.438;18.978;2023-11-21T01:16:36;99630.13;;;4.01;100.00
59110;BME280;44895;47.438;18.978;2023-11-21T01:19:40;99622.13;;;4.21;100.00
59110;BME280;44895;47.438;18.978;2023-11-21T01:22:44;99618.13;;;4.24;100.00
59110;BME280;44895;47.438;18.978;2023-11-21T01:25:48;99614.50;;;3.98;100.00
59110;BME280;44895;47.438;18.978;2023-11-21T01:28:52;99621.59;;;4.14;100.00
59110;BME280;44895;47.438;18.978;2023-11-21T01:31:56;99620.50;;;4.20;100.00
59110;BME280;44895;47.438;18.978;2023-11-21T01:35:00;99607.59;;;4.12;100.00
59110;BME280;44895;47.438;18.978;2023-11-21T01:38:04;99627.75;;;4.10;100.00
59110;BME280;44895;47.438;18.978;2023-11-21T01:41:08;99619.88;;;3.98;100.00
59110;BME280;44895;47.438;18.978;2023-11-21T01:44:14;99611.31;;;4.06;100.00
59110;BME280;44895;47.438;18.978;2023-11-21T01:47:18;99614.94;;;3.79;100.00
59110;BME280;44895;47.438;18.978;2023-11-21T01:50:21;99604.34;;;3.62;100.00
59110;BME280;44895;47.438;18.978;2023-11-21T01:53:26;99611.81;;;3.50;100.00
59110;BME280;44895;47.438;18.978;2023-11-21T01:56:30;99604.59;;;3.55;100.00
59110;BME280;44895;47.438;18.978;2023-11-21T01:59:36;99606.06;;;3.79;100.00
59110;BME280;44895;47.438;18.978;2023-11-21T02:02:48;99596.53;;;4.03;100.00
59110;BME280;44895;47.438;18.978;2023-11-21T02:05:53;99591.94;;;4.04;100.00
59110;BME280;44895;47.438;18.978;2023-11-21T02:08:57;99583.88;;;3.99;100.00
59110;BME280;44895;47.438;18.978;2023-11-21T02:12:01;99584.09;;;3.87;100.00
59110;BME280;44895;47.438;18.978;2023-11-21T02:15:06;99578.50;;;4.04;100.00
59110;BME280;44895;47.438;18.978;2023-11-21T02:18:13;99592.28;;;4.23;100.00
59110;BME280;44895;47.438;18.978;2023-11-21T02:21:18;99578.03;;;4.17;100.00
59110;BME280;44895;47.438;18.978;2023-11-21T02:24:25;99581.34;;;4.35;100.00
59110;BME280;44895;47.438;18.978;2023-11-21T02:27:29;99574.34;;;4.39;100.00
59110;BME280;44895;47.438;18.978;2023-11-21T02:30:32;99568.97;;;4.34;100.00
59110;BME280;44895;47.438;18.978;2023-11-21T02:33:36;99567.91;;;4.40;100.00
59110;BME280;44895;47.438;18.978;2023-11-21T02:36:40;99563.22;;;4.10;100.00
59110;BME280;44895;47.438;18.978;2023-11-21T02:39:45;99575.41;;;4.33;100.00
59110;BME280;44895;47.438;18.978;2023-11-21T02:42:50;99561.44;;;4.31;100.00
59110;BME280;44895;47.438;18.978;2023-11-21T02:45:54;99563.31;;;4.35;100.00
59110;BME280;44895;47.438;18.978;2023-11-21T02:48:58;99569.28;;;4.58;100.00
59110;BME280;44895;47.438;18.978;2023-11-21T02:52:02;99570.91;;;4.64;100.00
59110;BME280;44895;47.438;18.978;2023-11-21T02:55:06;99570.13;;;4.74;100.00
59110;BME280;44895;47.438;18.978;2023-11-21T02:58:10;99559.31;;;4.48;100.00
59110;BME280;44895;47.438;18.978;2023-11-21T03:01:14;99570.88;;;4.44;100.00
59110;BME280;44895;47.438;18.978;2023-11-21T03:04:18;99555.81;;;4.43;100.00
59110;BME280;44895;47.438;18.978;2023-11-21T03:07:22;99552.25;;;4.21;100.00
59110;BME280;44895;47.438;18.978;2023-11-21T03:10:26;99542.63;;;4.46;100.00
59110;BME280;44895;47.438;18.978;2023-11-21T03:13:30;99534.03;;;4.54;100.00
59110;BME280;44895;47.438;18.978;2023-11-21T03:16:35;99529.66;;;4.17;100.00
59110;BME280;44895;47.438;18.978;2023-11-21T03:19:41;99531.56;;;4.27;100.00
59110;BME280;44895;47.438;18.978;2023-11-21T03:22:46;99521.13;;;4.41;100.00
59110;BME280;44895;47.438;18.978;2023-11-21T03:25:50;99526.50;;;4.41;100.00
59110;BME280;44895;47.438;18.978;2023-11-21T03:28:54;99518.97;;;4.48;100.00
59110;BME280;44895;47.438;18.978;2023-11-21T03:31:57;99512.28;;;4.66;100.00
59110;BME280;44895;47.438;18.978;2023-11-21T03:35:01;99508.25;;;4.79;100.00
59110;BME280;44895;47.438;18.978;2023-11-21T03:38:05;99498.53;;;4.83;100.00
59110;BME280;44895;47.438;18.978;2023-11-21T03:41:09;99501.25;;;4.63;100.00
59110;BME280;44895;47.438;18.978;2023-11-21T03:44:13;99508.25;;;4.69;100.00
59110;BME280;44895;47.438;18.978;2023-11-21T03:47:17;99521.13;;;4.51;100.00
59110;BME280;44895;47.438;18.978;2023-11-21T03:50:22;99519.50;;;4.35;100.00
59110;BME280;44895;47.438;18.978;2023-11-21T03:53:26;99527.78;;;4.23;100.00
59110;BME280;44895;47.438;18.978;2023-11-21T03:56:30;99535.31;;;4.26;100.00
59110;BME280;44895;47.438;18.978;2023-11-21T03:59:33;99529.41;;;4.24;100.00
59110;BME280;44895;47.438;18.978;2023-11-21T04:02:37;99529.19;;;4.41;100.00
59110;BME280;44895;47.438;18.978;2023-11-21T04:05:41;99532.16;;;4.60;100.00
59110;BME280;44895;47.438;18.978;2023-11-21T04:08:45;99530.25;;;4.35;100.00
59110;BME280;44895;47.438;18.978;2023-11-21T04:11:48;99541.81;;;4.56;100.00
59110;BME280;44895;47.438;18.978;2023-11-21T04:14:52;99545.34;;;4.72;100.00
59110;BME280;44895;47.438;18.978;2023-11-21T04:17:56;99542.09;;;4.60;100.00
59110;BME280;44895;47.438;18.978;2023-11-21T04:20:59;99549.94;;;4.66;100.00
59110;BME280;44895;47.438;18.978;2023-11-21T04:24:04;99556.41;;;4.76;100.00
59110;BME280;44895;47.438;18.978;2023-11-21T04:27:07;99551.78;;;4.55;100.00
59110;BME280;44895;47.438;18.978;2023-11-21T04:30:12;99549.66;;;4.57;100.00
59110;BME280;44895;47.438;18.978;2023-11-21T04:33:16;99551.28;;;4.69;100.00
59110;BME280;44895;47.438;18.978;2023-11-21T04:36:20;99558.53;;;4.68;100.00
59110;BME280;44895;47.438;18.978;2023-11-21T04:39:24;99548.03;;;4.67;100.00
59110;BME280;44895;47.438;18.978;2023-11-21T04:42:27;99551.81;;;4.61;100.00
59110;BME280;44895;47.438;18.978;2023-11-21T04:45:32;99565.81;;;4.78;100.00
59110;BME280;44895;47.438;18.978;2023-11-21T04:48:36;99567.16;;;4.70;100.00
59110;BME280;44895;47.438;18.978;2023-11-21T04:51:39;99588.19;;;4.94;100.00
59110;BME280;44895;47.438;18.978;2023-11-21T04:54:43;99578.19;;;4.79;100.00
59110;BME280;44895;47.438;18.978;2023-11-21T04:57:48;99584.09;;;4.81;100.00
59110;BME280;44895;47.438;18.978;2023-11-21T05:00:52;99583.59;;;5.00;100.00
59110;BME280;44895;47.438;18.978;2023-11-21T05:03:55;99595.44;;;5.04;100.00
59110;BME280;44895;47.438;18.978;2023-11-21T05:07:00;99592.72;;;4.83;100.00
59110;BME280;44895;47.438;18.978;2023-11-21T05:10:05;99596.50;;;4.93;100.00
59110;BME280;44895;47.438;18.978;2023-11-21T05:13:14;99585.75;;;5.18;100.00
59110;BME280;44895;47.438;18.978;2023-11-21T05:16:20;99591.13;;;5.29;100.00
59110;BME280;44895;47.438;18.978;2023-11-21T05:19:24;99580.91;;;5.15;100.00
59110;BME280;44895;47.438;18.978;2023-11-21T05:22:28;99560.97;;;5.16;100.00
59110;BME280;44895;47.438;18.978;2023-11-21T05:25:32;99565.03;;;4.93;100.00
59110;BME280;44895;47.438;18.978;2023-11-21T05:28:35;99568.78;;;5.13;100.00
59110;BME280;44895;47.438;18.978;2023-11-21T05:31:40;99579.81;;;5.16;100.00
59110;BME280;44895;47.438;18.978;2023-11-21T05:34:44;99583.03;;;5.34;100.00
59110;BME280;44895;47.438;18.978;2023-11-21T05:37:48;99593.00;;;5.23;100.00
59110;BME280;44895;47.438;18.978;2023-11-21T05:40:51;99572.81;;;4.95;100.00
59110;BME280;44895;47.438;18.978;2023-11-21T05:43:55;99572.03;;;4.89;100.00
59110;BME280;44895;47.438;18.978;2023-11-21T05:46:59;99581.69;;;4.90;100.00
59110;BME280;44895;47.438;18.978;2023-11-21T05:50:04;99580.63;;;5.01;100.00
59110;BME280;44895;47.438;18.978;2023-11-21T05:53:09;99588.41;;;4.93;100.00
59110;BME280;44895;47.438;18.978;2023-11-21T05:56:15;99597.06;;;5.05;100.00
59110;BME280;44895;47.438;18.978;2023-11-21T05:59:18;99598.41;;;5.38;100.00
59110;BME280;44895;47.438;18.978;2023-11-21T06:02:23;99600.28;;;5.33;100.00
59110;BME280;44895;47.438;18.978;2023-11-21T06:05:27;99605.66;;;5.48;100.00
59110;BME280;44895;47.438;18.978;2023-11-21T06:08:31;99597.56;;;5.48;100.00
59110;BME280;44895;47.438;18.978;2023-11-21T06:11:35;99616.16;;;5.60;100.00
59110;BME280;44895;47.438;18.978;2023-11-21T06:14:39;99613.22;;;5.46;100.00
59110;BME280;44895;47.438;18.978;2023-11-21T06:17:43;99633.09;;;5.66;100.00
59110;BME280;44895;47.438;18.978;2023-11-21T06:20:47;99636.38;;;5.47;100.00
59110;BME280;44895;47.438;18.978;2023-11-21T06:23:51;99637.19;;;5.48;100.00
59110;BME280;44895;47.438;18.978;2023-11-21T06:26:56;99644.69;;;5.51;100.00
59110;BME280;44895;47.438;18.978;2023-11-21T06:29:59;99656.31;;;5.36;100.00
59110;BME280;44895;47.438;18.978;2023-11-21T06:33:03;99664.91;;;5.48;100.00
59110;BME280;44895;47.438;18.978;2023-11-21T06:36:07;99669.75;;;5.67;100.00
59110;BME280;44895;47.438;18.978;2023-11-21T06:39:11;99675.97;;;5.78;100.00
59110;BME280;44895;47.438;18.978;2023-11-21T06:42:15;99679.19;;;5.75;100.00
59110;BME280;44895;47.438;18.978;2023-11-21T06:45:19;99677.31;;;5.75;100.00
59110;BME280;44895;47.438;18.978;2023-11-21T06:48:23;99674.06;;;5.68;100.00
59110;BME280;44895;47.438;18.978;2023-11-21T06:51:27;99679.16;;;5.80;100.00
59110;BME280;44895;47.438;18.978;2023-11-21T06:54:31;99679.44;;;5.83;100.00
59110;BME280;44895;47.438;18.978;2023-11-21T06:57:36;99675.66;;;5.90;100.00
59110;BME280;44895;47.438;18.978;2023-11-21T07:00:39;99674.88;;;5.99;100.00
59110;BME280;44895;47.438;18.978;2023-11-21T07:04:01;99682.66;;;5.91;100.00
59110;BME280;44895;47.438;18.978;2023-11-21T07:07:06;99682.16;;;5.73;100.00
59110;BME280;44895;47.438;18.978;2023-11-21T07:10:10;99676.44;;;5.95;100.00
59110;BME280;44895;47.438;18.978;2023-11-21T07:13:14;99681.59;;;5.97;100.00
59110;BME280;44895;47.438;18.978;2023-11-21T07:16:18;99671.34;;;5.99;100.00
59110;BME280;44895;47.438;18.978;2023-11-21T07:19:22;99681.88;;;6.06;100.00
59110;BME280;44895;47.438;18.978;2023-11-21T07:22:25;99674.03;;;6.09;100.00
59110;BME280;44895;47.438;18.978;2023-11-21T07:25:29;99674.78;;;6.25;100.00
59110;BME280;44895;47.438;18.978;2023-11-21T07:28:33;99683.91;;;6.40;100.00
59110;BME280;44895;47.438;18.978;2023-11-21T07:31:37;99677.72;;;6.39;100.00
59110;BME280;44895;47.438;18.978;2023-11-21T07:34:41;99673.38;;;6.43;100.00
59110;BME280;44895;47.438;18.978;2023-11-21T07:37:44;99670.13;;;6.51;100.00
59110;BME280;44895;47.438;18.978;2023-11-21T07:40:48;99668.97;;;6.68;100.00
59110;BME280;44895;47.438;18.978;2023-11-21T07:43:52;99673.06;;;6.60;100.00
59110;BME280;44895;47.438;18.978;2023-11-21T07:46:57;99670.56;;;6.74;100.00
59110;BME280;44895;47.438;18.978;2023-11-21T07:50:04;99677.50;;;6.85;100.00
59110;BME280;44895;47.438;18.978;2023-11-21T07:53:07;99672.91;;;6.86;100.00
59110;BME280;44895;47.438;18.978;2023-11-21T07:56:11;99679.88;;;6.97;100.00
59110;BME280;44895;47.438;18.978;2023-11-21T07:59:16;99672.56;;;6.98;100.00
59110;BME280;44895;47.438;18.978;2023-11-21T08:02:21;99669.28;;;7.06;100.00
59110;BME280;44895;47.438;18.978;2023-11-21T08:05:25;99667.16;;;7.03;100.00
59110;BME280;44895;47.438;18.978;2023-11-21T08:08:29;99666.81;;;7.15;100.00
59110;BME280;44895;47.438;18.978;2023-11-21T08:11:32;99662.19;;;7.15;100.00
59110;BME280;44895;47.438;18.978;2023-11-21T08:14:37;99678.63;;;7.24;100.00
59110;BME280;44895;47.438;18.978;2023-11-21T08:17:42;99672.91;;;7.31;100.00
59110;BME280;44895;47.438;18.978;2023-11-21T08:20:46;99669.91;;;7.32;100.00
59110;BME280;44895;47.438;18.978;2023-11-21T08:23:53;99669.88;;;7.38;100.00
59110;BME280;44895;47.438;18.978;2023-11-21T08:26:57;99667.13;;;7.43;100.00
59110;BME280;44895;47.438;18.978;2023-11-21T08:30:05;99667.38;;;7.46;100.00
59110;BME280;44895;47.438;18.978;2023-11-21T08:33:08;99660.94;;;7.37;100.00
59110;BME280;44895;47.438;18.978;2023-11-21T08:36:12;99666.13;;;7.33;100.00
59110;BME280;44895;47.438;18.978;2023-11-21T08:39:16;99663.53;;;7.18;100.00
